sensor_id;sensor_type;location;lat;lon;timestamp;P1;durP1;ratioP1;P2;durP2;ratioP2
24567;SDS011;12731;52.182;8.716;2022-10-16T00:01:26;6.95;;;5.13;;
24567;SDS011;12731;52.182;8.716;2022-10-16T00:03:55;6.65;;;6.05;;
24567;SDS011;12731;52.182;8.716;2022-10-16T00:06:22;7.88;;;5.63;;
24567;SDS011;12731;52.182;8.716;2022-10-16T00:08:49;7.72;;;5.88;;
24567;SDS011;12731;52.182;8.716;2022-10-16T00:11:18;8.68;;;5.82;;
24567;SDS011;12731;52.182;8.716;2022-10-16T00:13:45;7.20;;;5.88;;
24567;SDS011;12731;52.182;8.716;2022-10-16T00:16:14;7.72;;;5.15;;
24567;SDS011;12731;52.182;8.716;2022-10-16T00:18:41;7.57;;;5.43;;
24567;SDS011;12731;52.182;8.716;2022-10-16T00:21:24;6.70;;;5.13;;
24567;SDS011;12731;52.182;8.716;2022-10-16T00:23:54;8.65;;;5.70;;
24567;SDS011;12731;52.182;8.716;2022-10-16T00:26:22;7.72;;;5.88;;
24567;SDS011;12731;52.182;8.716;2022-10-16T00:28:49;9.93;;;5.35;;
24567;SDS011;12731;52.182;8.716;2022-10-16T00:31:18;7.97;;;6.00;;
24567;SDS011;12731;52.182;8.716;2022-10-16T00:33:45;9.40;;;5.93;;
24567;SDS011;12731;52.182;8.716;2022-10-16T00:36:13;7.57;;;5.65;;
24567;SDS011;12731;52.182;8.716;2022-10-16T00:38:41;8.57;;;6.38;;
24567;SDS011;12731;52.182;8.716;2022-10-16T00:41:09;10.07;;;6.32;;
24567;SDS011;12731;52.182;8.716;2022-10-16T00:46:20;7.88;;;6.53;;
24567;SDS011;12731;52.182;8.716;2022-10-16T00:49:00;12.30;;;6.95;;
24567;SDS011;12731;52.182;8.716;2022-10-16T00:51:34;8.98;;;6.60;;
24567;SDS011;12731;52.182;8.716;2022-10-16T00:54:04;8.68;;;6.45;;
24567;SDS011;12731;52.182;8.716;2022-10-16T00:56:43;11.20;;;6.53;;
24567;SDS011;12731;52.182;8.716;2022-10-16T00:59:11;10.65;;;6.68;;
24567;SDS011;12731;52.182;8.716;2022-10-16T01:01:42;8.00;;;6.18;;
24567;SDS011;12731;52.182;8.716;2022-10-16T01:04:08;9.90;;;5.60;;
24567;SDS011;12731;52.182;8.716;2022-10-16T01:09:31;10.18;;;5.30;;
24567;SDS011;12731;52.182;8.716;2022-10-16T01:12:27;9.15;;;5.43;;
24567;SDS011;12731;52.182;8.716;2022-10-16T01:15:18;9.25;;;6.13;;
24567;SDS011;12731;52.182;8.716;2022-10-16T01:18:00;8.37;;;4.43;;
24567;SDS011;12731;52.182;8.716;2022-10-16T01:20:33;9.50;;;5.80;;
24567;SDS011;12731;52.182;8.716;2022-10-16T01:26:03;9.55;;;5.55;;
24567;SDS011;12731;52.182;8.716;2022-10-16T01:28:52;9.65;;;5.70;;
24567;SDS011;12731;52.182;8.716;2022-10-16T01:31:22;8.88;;;5.80;;
24567;SDS011;12731;52.182;8.716;2022-10-16T01:34:00;10.98;;;6.30;;
24567;SDS011;12731;52.182;8.716;2022-10-16T01:36:40;9.70;;;6.25;;
24567;SDS011;12731;52.182;8.716;2022-10-16T01:39:10;7.82;;;6.10;;
24567;SDS011;12731;52.182;8.716;2022-10-16T01:41:44;9.13;;;6.63;;
24567;SDS011;12731;52.182;8.716;2022-10-16T01:44:25;13.68;;;6.97;;
24567;SDS011;12731;52.182;8.716;2022-10-16T01:46:55;10.35;;;6.60;;
24567;SDS011;12731;52.182;8.716;2022-10-16T01:49:23;10.10;;;6.72;;
24567;SDS011;12731;52.182;8.716;2022-10-16T01:51:53;9.55;;;7.30;;
24567;SDS011;12731;52.182;8.716;2022-10-16T01:54:22;9.48;;;6.50;;
24567;SDS011;12731;52.182;8.716;2022-10-16T01:56:49;9.18;;;7.18;;
24567;SDS011;12731;52.182;8.716;2022-10-16T01:59:18;10.55;;;6.97;;
24567;SDS011;12731;52.182;8.716;2022-10-16T02:01:47;8.57;;;6.47;;
24567;SDS011;12731;52.182;8.716;2022-10-16T02:04:18;10.80;;;6.93;;
24567;SDS011;12731;52.182;8.716;2022-10-16T02:06:48;11.57;;;6.77;;
24567;SDS011;12731;52.182;8.716;2022-10-16T02:09:15;9.80;;;6.38;;
24567;SDS011;12731;52.182;8.716;2022-10-16T02:11:43;10.32;;;6.57;;
24567;SDS011;12731;52.182;8.716;2022-10-16T02:14:10;9.05;;;6.50;;
24567;SDS011;12731;52.182;8.716;2022-10-16T02:16:40;11.02;;;6.93;;
24567;SDS011;12731;52.182;8.716;2022-10-16T02:19:08;9.07;;;6.55;;
24567;SDS011;12731;52.182;8.716;2022-10-16T02:24:09;13.05;;;6.32;;
24567;SDS011;12731;52.182;8.716;2022-10-16T02:29:39;7.20;;;5.38;;
24567;SDS011;12731;52.182;8.716;2022-10-16T02:32:10;9.93;;;6.15;;
24567;SDS011;12731;52.182;8.716;2022-10-16T02:34:39;8.77;;;6.43;;
24567;SDS011;12731;52.182;8.716;2022-10-16T02:37:05;10.10;;;5.80;;
24567;SDS011;12731;52.182;8.716;2022-10-16T02:39:32;10.15;;;6.10;;
24567;SDS011;12731;52.182;8.716;2022-10-16T02:41:59;6.10;;;5.18;;
24567;SDS011;12731;52.182;8.716;2022-10-16T02:44:26;6.72;;;6.00;;
24567;SDS011;12731;52.182;8.716;2022-10-16T02:46:52;11.57;;;6.25;;
24567;SDS011;12731;52.182;8.716;2022-10-16T02:49:19;7.88;;;5.50;;
24567;SDS011;12731;52.182;8.716;2022-10-16T02:51:45;11.15;;;6.43;;
24567;SDS011;12731;52.182;8.716;2022-10-16T02:54:12;10.68;;;6.03;;
24567;SDS011;12731;52.182;8.716;2022-10-16T02:56:39;10.85;;;5.78;;
24567;SDS011;12731;52.182;8.716;2022-10-16T02:59:05;11.75;;;6.30;;
24567;SDS011;12731;52.182;8.716;2022-10-16T03:01:32;8.93;;;6.43;;
24567;SDS011;12731;52.182;8.716;2022-10-16T03:03:58;10.25;;;6.22;;
24567;SDS011;12731;52.182;8.716;2022-10-16T03:06:24;8.77;;;6.63;;
24567;SDS011;12731;52.182;8.716;2022-10-16T03:08:51;9.60;;;6.10;;
24567;SDS011;12731;52.182;8.716;2022-10-16T03:11:17;8.82;;;6.10;;
24567;SDS011;12731;52.182;8.716;2022-10-16T03:13:44;9.00;;;6.38;;
24567;SDS011;12731;52.182;8.716;2022-10-16T03:16:10;10.88;;;6.38;;
24567;SDS011;12731;52.182;8.716;2022-10-16T03:18:37;9.02;;;5.75;;
24567;SDS011;12731;52.182;8.716;2022-10-16T03:21:03;10.02;;;5.90;;
24567;SDS011;12731;52.182;8.716;2022-10-16T03:23:30;8.35;;;5.35;;
24567;SDS011;12731;52.182;8.716;2022-10-16T03:26:01;6.20;;;5.50;;
24567;SDS011;12731;52.182;8.716;2022-10-16T03:28:27;10.35;;;5.43;;
24567;SDS011;12731;52.182;8.716;2022-10-16T03:30:54;6.80;;;5.70;;
24567;SDS011;12731;52.182;8.716;2022-10-16T03:33:20;8.95;;;5.45;;
24567;SDS011;12731;52.182;8.716;2022-10-16T03:35:50;9.20;;;5.65;;
24567;SDS011;12731;52.182;8.716;2022-10-16T03:38:19;11.20;;;6.05;;
24567;SDS011;12731;52.182;8.716;2022-10-16T03:40:45;8.63;;;5.60;;
24567;SDS011;12731;52.182;8.716;2022-10-16T03:43:12;8.93;;;5.20;;
24567;SDS011;12731;52.182;8.716;2022-10-16T03:45:43;8.70;;;5.82;;
24567;SDS011;12731;52.182;8.716;2022-10-16T03:48:09;8.48;;;5.60;;
24567;SDS011;12731;52.182;8.716;2022-10-16T03:50:36;7.78;;;5.53;;
24567;SDS011;12731;52.182;8.716;2022-10-16T03:53:03;9.45;;;5.68;;
24567;SDS011;12731;52.182;8.716;2022-10-16T03:55:29;11.45;;;6.15;;
24567;SDS011;12731;52.182;8.716;2022-10-16T03:57:55;8.40;;;5.53;;
24567;SDS011;12731;52.182;8.716;2022-10-16T04:00:22;9.57;;;5.60;;
24567;SDS011;12731;52.182;8.716;2022-10-16T04:02:48;8.88;;;5.43;;
24567;SDS011;12731;52.182;8.716;2022-10-16T04:05:15;9.15;;;5.68;;
24567;SDS011;12731;52.182;8.716;2022-10-16T04:07:41;8.73;;;5.22;;
24567;SDS011;12731;52.182;8.716;2022-10-16T04:10:08;11.00;;;5.55;;
24567;SDS011;12731;52.182;8.716;2022-10-16T04:12:34;6.60;;;5.35;;
24567;SDS011;12731;52.182;8.716;2022-10-16T04:15:01;9.05;;;5.65;;
24567;SDS011;12731;52.182;8.716;2022-10-16T04:17:27;8.98;;;5.00;;
24567;SDS011;12731;52.182;8.716;2022-10-16T04:19:54;8.77;;;5.15;;
24567;SDS011;12731;52.182;8.716;2022-10-16T04:22:21;6.70;;;4.90;;
24567;SDS011;12731;52.182;8.716;2022-10-16T04:24:47;6.55;;;4.63;;
24567;SDS011;12731;52.182;8.716;2022-10-16T04:27:17;6.63;;;4.40;;
24567;SDS011;12731;52.182;8.716;2022-10-16T04:29:43;5.15;;;4.25;;
24567;SDS011;12731;52.182;8.716;2022-10-16T04:32:09;8.27;;;4.53;;
24567;SDS011;12731;52.182;8.716;2022-10-16T04:34:36;6.47;;;4.35;;
24567;SDS011;12731;52.182;8.716;2022-10-16T04:37:04;6.35;;;4.22;;
24567;SDS011;12731;52.182;8.716;2022-10-16T04:39:30;7.82;;;4.50;;
24567;SDS011;12731;52.182;8.716;2022-10-16T04:41:57;5.35;;;4.30;;
24567;SDS011;12731;52.182;8.716;2022-10-16T04:44:23;7.90;;;4.50;;
24567;SDS011;12731;52.182;8.716;2022-10-16T04:46:50;9.07;;;4.53;;
24567;SDS011;12731;52.182;8.716;2022-10-16T04:49:16;6.25;;;4.30;;
24567;SDS011;12731;52.182;8.716;2022-10-16T04:51:43;4.47;;;3.78;;
24567;SDS011;12731;52.182;8.716;2022-10-16T04:54:09;6.00;;;3.85;;
24567;SDS011;12731;52.182;8.716;2022-10-16T04:56:38;5.93;;;3.70;;
24567;SDS011;12731;52.182;8.716;2022-10-16T04:59:13;4.88;;;3.95;;
24567;SDS011;12731;52.182;8.716;2022-10-16T05:01:40;5.55;;;3.50;;
24567;SDS011;12731;52.182;8.716;2022-10-16T05:04:07;5.63;;;3.83;;
24567;SDS011;12731;52.182;8.716;2022-10-16T05:06:33;5.50;;;4.13;;
24567;SDS011;12731;52.182;8.716;2022-10-16T05:08:59;7.53;;;3.78;;
24567;SDS011;12731;52.182;8.716;2022-10-16T05:11:26;5.00;;;3.65;;
24567;SDS011;12731;52.182;8.716;2022-10-16T05:13:52;6.30;;;3.70;;
24567;SDS011;12731;52.182;8.716;2022-10-16T05:16:21;6.82;;;3.92;;
24567;SDS011;12731;52.182;8.716;2022-10-16T05:18:47;4.60;;;3.55;;
24567;SDS011;12731;52.182;8.716;2022-10-16T05:21:18;4.53;;;3.20;;
24567;SDS011;12731;52.182;8.716;2022-10-16T05:23:44;7.22;;;3.38;;
24567;SDS011;12731;52.182;8.716;2022-10-16T05:26:11;7.82;;;3.80;;
24567;SDS011;12731;52.182;8.716;2022-10-16T05:28:37;4.30;;;2.85;;
24567;SDS011;12731;52.182;8.716;2022-10-16T05:31:08;4.57;;;3.30;;
24567;SDS011;12731;52.182;8.716;2022-10-16T05:33:35;5.38;;;3.33;;
24567;SDS011;12731;52.182;8.716;2022-10-16T05:36:03;6.00;;;3.38;;
24567;SDS011;12731;52.182;8.716;2022-10-16T05:38:30;4.50;;;2.95;;
24567;SDS011;12731;52.182;8.716;2022-10-16T05:40:56;4.65;;;2.90;;
24567;SDS011;12731;52.182;8.716;2022-10-16T05:43:23;4.63;;;2.80;;
24567;SDS011;12731;52.182;8.716;2022-10-16T05:45:56;3.92;;;2.80;;
24567;SDS011;12731;52.182;8.716;2022-10-16T05:48:24;3.53;;;2.88;;
24567;SDS011;12731;52.182;8.716;2022-10-16T05:50:58;2.60;;;2.40;;
24567;SDS011;12731;52.182;8.716;2022-10-16T05:53:27;4.10;;;2.78;;
24567;SDS011;12731;52.182;8.716;2022-10-16T05:55:54;4.68;;;2.50;;
24567;SDS011;12731;52.182;8.716;2022-10-16T05:58:22;3.83;;;2.50;;
24567;SDS011;12731;52.182;8.716;2022-10-16T06:00:59;5.30;;;2.60;;
24567;SDS011;12731;52.182;8.716;2022-10-16T06:03:29;4.85;;;2.85;;
24567;SDS011;12731;52.182;8.716;2022-10-16T06:05:56;2.58;;;2.30;;
24567;SDS011;12731;52.182;8.716;2022-10-16T06:08:22;3.08;;;2.20;;
24567;SDS011;12731;52.182;8.716;2022-10-16T06:10:59;5.20;;;2.58;;
24567;SDS011;12731;52.182;8.716;2022-10-16T06:13:29;3.50;;;2.42;;
24567;SDS011;12731;52.182;8.716;2022-10-16T06:15:56;4.03;;;2.38;;
24567;SDS011;12731;52.182;8.716;2022-10-16T06:18:24;3.85;;;2.42;;
24567;SDS011;12731;52.182;8.716;2022-10-16T06:20:51;3.92;;;2.10;;
24567;SDS011;12731;52.182;8.716;2022-10-16T06:23:18;4.88;;;2.30;;
24567;SDS011;12731;52.182;8.716;2022-10-16T06:25:44;4.00;;;2.00;;
24567;SDS011;12731;52.182;8.716;2022-10-16T06:28:11;4.22;;;2.20;;
24567;SDS011;12731;52.182;8.716;2022-10-16T06:30:37;4.60;;;2.25;;
24567;SDS011;12731;52.182;8.716;2022-10-16T06:33:04;3.47;;;2.17;;
24567;SDS011;12731;52.182;8.716;2022-10-16T06:35:30;3.80;;;2.00;;
24567;SDS011;12731;52.182;8.716;2022-10-16T06:37:58;3.05;;;1.92;;
24567;SDS011;12731;52.182;8.716;2022-10-16T06:40:24;3.35;;;2.05;;
24567;SDS011;12731;52.182;8.716;2022-10-16T06:42:50;2.47;;;1.90;;
24567;SDS011;12731;52.182;8.716;2022-10-16T06:45:18;4.90;;;2.00;;
24567;SDS011;12731;52.182;8.716;2022-10-16T06:47:44;4.25;;;1.50;;
24567;SDS011;12731;52.182;8.716;2022-10-16T06:50:15;4.38;;;1.70;;
24567;SDS011;12731;52.182;8.716;2022-10-16T06:52:41;2.05;;;1.70;;
24567;SDS011;12731;52.182;8.716;2022-10-16T06:55:08;2.15;;;1.80;;
24567;SDS011;12731;52.182;8.716;2022-10-16T06:57:34;2.30;;;1.65;;
24567;SDS011;12731;52.182;8.716;2022-10-16T07:00:00;5.38;;;1.60;;
24567;SDS011;12731;52.182;8.716;2022-10-16T07:02:27;2.53;;;1.33;;
24567;SDS011;12731;52.182;8.716;2022-10-16T07:04:54;2.20;;;1.70;;
24567;SDS011;12731;52.182;8.716;2022-10-16T07:07:22;3.22;;;1.45;;
24567;SDS011;12731;52.182;8.716;2022-10-16T07:09:50;3.55;;;1.70;;
24567;SDS011;12731;52.182;8.716;2022-10-16T07:12:17;3.92;;;1.45;;
24567;SDS011;12731;52.182;8.716;2022-10-16T07:14:43;1.67;;;1.27;;
24567;SDS011;12731;52.182;8.716;2022-10-16T07:17:10;3.58;;;1.33;;
24567;SDS011;12731;52.182;8.716;2022-10-16T07:19:36;3.15;;;1.42;;
24567;SDS011;12731;52.182;8.716;2022-10-16T07:22:03;1.95;;;1.40;;
24567;SDS011;12731;52.182;8.716;2022-10-16T07:24:29;2.08;;;1.60;;
24567;SDS011;12731;52.182;8.716;2022-10-16T07:26:55;2.88;;;1.35;;
24567;SDS011;12731;52.182;8.716;2022-10-16T07:29:22;2.95;;;1.20;;
24567;SDS011;12731;52.182;8.716;2022-10-16T07:31:49;3.42;;;1.30;;
24567;SDS011;12731;52.182;8.716;2022-10-16T07:34:16;1.67;;;1.23;;
24567;SDS011;12731;52.182;8.716;2022-10-16T07:36:43;1.80;;;1.50;;
24567;SDS011;12731;52.182;8.716;2022-10-16T07:39:10;2.65;;;1.58;;
24567;SDS011;12731;52.182;8.716;2022-10-16T07:41:36;3.25;;;1.40;;
24567;SDS011;12731;52.182;8.716;2022-10-16T07:44:03;2.47;;;1.20;;
24567;SDS011;12731;52.182;8.716;2022-10-16T07:46:30;2.78;;;1.20;;
24567;SDS011;12731;52.182;8.716;2022-10-16T07:48:57;1.38;;;1.27;;
24567;SDS011;12731;52.182;8.716;2022-10-16T07:51:24;2.47;;;1.23;;
24567;SDS011;12731;52.182;8.716;2022-10-16T07:53:51;1.38;;;1.10;;
24567;SDS011;12731;52.182;8.716;2022-10-16T07:56:18;2.38;;;1.23;;
24567;SDS011;12731;52.182;8.716;2022-10-16T07:58:46;3.90;;;1.15;;
24567;SDS011;12731;52.182;8.716;2022-10-16T08:01:14;1.75;;;1.33;;
24567;SDS011;12731;52.182;8.716;2022-10-16T08:03:42;5.10;;;1.33;;
24567;SDS011;12731;52.182;8.716;2022-10-16T08:06:12;2.70;;;1.10;;
24567;SDS011;12731;52.182;8.716;2022-10-16T08:08:38;1.83;;;1.10;;
24567;SDS011;12731;52.182;8.716;2022-10-16T08:11:05;2.00;;;1.33;;
24567;SDS011;12731;52.182;8.716;2022-10-16T08:13:31;1.83;;;1.13;;
24567;SDS011;12731;52.182;8.716;2022-10-16T08:15:58;2.10;;;1.52;;
24567;SDS011;12731;52.182;8.716;2022-10-16T08:18:24;2.83;;;1.50;;
24567;SDS011;12731;52.182;8.716;2022-10-16T08:20:55;4.72;;;1.48;;
24567;SDS011;12731;52.182;8.716;2022-10-16T08:23:23;3.17;;;1.27;;
24567;SDS011;12731;52.182;8.716;2022-10-16T08:25:52;2.42;;;1.50;;
24567;SDS011;12731;52.182;8.716;2022-10-16T08:28:19;3.85;;;1.40;;
24567;SDS011;12731;52.182;8.716;2022-10-16T08:30:46;3.17;;;1.40;;
24567;SDS011;12731;52.182;8.716;2022-10-16T08:33:12;3.35;;;1.50;;
24567;SDS011;12731;52.182;8.716;2022-10-16T08:35:39;1.95;;;1.40;;
24567;SDS011;12731;52.182;8.716;2022-10-16T08:38:06;2.25;;;1.50;;
24567;SDS011;12731;52.182;8.716;2022-10-16T08:40:33;3.25;;;1.65;;
24567;SDS011;12731;52.182;8.716;2022-10-16T08:46:05;1.58;;;1.25;;
24567;SDS011;12731;52.182;8.716;2022-10-16T08:48:46;5.15;;;1.35;;
24567;SDS011;12731;52.182;8.716;2022-10-16T08:51:24;1.90;;;1.20;;
24567;SDS011;12731;52.182;8.716;2022-10-16T08:56:23;1.58;;;1.25;;
24567;SDS011;12731;52.182;8.716;2022-10-16T08:58:50;2.50;;;1.30;;
24567;SDS011;12731;52.182;8.716;2022-10-16T09:01:23;2.03;;;1.15;;
24567;SDS011;12731;52.182;8.716;2022-10-16T09:09:23;4.05;;;1.15;;
24567;SDS011;12731;52.182;8.716;2022-10-16T09:12:04;2.78;;;1.23;;
24567;SDS011;12731;52.182;8.716;2022-10-16T09:17:42;3.97;;;1.20;;
24567;SDS011;12731;52.182;8.716;2022-10-16T09:23:26;1.65;;;0.88;;
24567;SDS011;12731;52.182;8.716;2022-10-16T09:25:55;1.85;;;1.17;;
24567;SDS011;12731;52.182;8.716;2022-10-16T09:28:22;2.92;;;1.30;;
24567;SDS011;12731;52.182;8.716;2022-10-16T09:30:49;2.95;;;1.20;;
24567;SDS011;12731;52.182;8.716;2022-10-16T09:33:17;5.60;;;1.27;;
24567;SDS011;12731;52.182;8.716;2022-10-16T09:35:46;4.00;;;1.30;;
24567;SDS011;12731;52.182;8.716;2022-10-16T09:38:22;3.75;;;1.45;;
24567;SDS011;12731;52.182;8.716;2022-10-16T09:40:50;4.22;;;1.08;;
24567;SDS011;12731;52.182;8.716;2022-10-16T09:46:07;3.38;;;1.17;;
24567;SDS011;12731;52.182;8.716;2022-10-16T09:48:36;3.25;;;1.15;;
24567;SDS011;12731;52.182;8.716;2022-10-16T09:51:05;4.07;;;1.20;;
24567;SDS011;12731;52.182;8.716;2022-10-16T09:53:40;3.30;;;1.38;;
24567;SDS011;12731;52.182;8.716;2022-10-16T09:56:12;6.80;;;1.15;;
24567;SDS011;12731;52.182;8.716;2022-10-16T09:58:55;3.88;;;1.10;;
24567;SDS011;12731;52.182;8.716;2022-10-16T10:01:27;1.92;;;1.00;;
24567;SDS011;12731;52.182;8.716;2022-10-16T10:04:03;3.80;;;1.27;;
24567;SDS011;12731;52.182;8.716;2022-10-16T10:06:30;4.55;;;1.30;;
24567;SDS011;12731;52.182;8.716;2022-10-16T10:09:02;6.32;;;1.05;;
24567;SDS011;12731;52.182;8.716;2022-10-16T10:11:41;4.65;;;1.42;;
24567;SDS011;12731;52.182;8.716;2022-10-16T10:16:48;3.10;;;1.00;;
24567;SDS011;12731;52.182;8.716;2022-10-16T10:19:20;3.35;;;0.95;;
24567;SDS011;12731;52.182;8.716;2022-10-16T10:21:49;4.60;;;0.90;;
24567;SDS011;12731;52.182;8.716;2022-10-16T10:24:16;2.47;;;1.13;;
24567;SDS011;12731;52.182;8.716;2022-10-16T10:26:49;4.28;;;1.10;;
24567;SDS011;12731;52.182;8.716;2022-10-16T10:29:26;4.13;;;1.20;;
24567;SDS011;12731;52.182;8.716;2022-10-16T10:35:11;4.30;;;1.13;;
24567;SDS011;12731;52.182;8.716;2022-10-16T10:38:03;3.45;;;1.23;;
24567;SDS011;12731;52.182;8.716;2022-10-16T10:52:07;4.93;;;0.93;;
24567;SDS011;12731;52.182;8.716;2022-10-16T10:54:53;3.03;;;0.90;;
24567;SDS011;12731;52.182;8.716;2022-10-16T11:00:28;2.42;;;0.90;;
24567;SDS011;12731;52.182;8.716;2022-10-16T11:08:34;3.05;;;0.93;;
24567;SDS011;12731;52.182;8.716;2022-10-16T11:11:08;2.97;;;0.80;;
24567;SDS011;12731;52.182;8.716;2022-10-16T11:13:43;3.17;;;1.25;;
24567;SDS011;12731;52.182;8.716;2022-10-16T11:16:27;1.65;;;0.82;;
24567;SDS011;12731;52.182;8.716;2022-10-16T11:18:57;3.60;;;1.10;;
24567;SDS011;12731;52.182;8.716;2022-10-16T11:21:26;4.38;;;1.27;;
24567;SDS011;12731;52.182;8.716;2022-10-16T11:26:45;5.30;;;1.48;;
24567;SDS011;12731;52.182;8.716;2022-10-16T11:29:16;2.40;;;1.02;;
24567;SDS011;12731;52.182;8.716;2022-10-16T11:31:48;4.35;;;1.45;;
24567;SDS011;12731;52.182;8.716;2022-10-16T11:37:05;3.13;;;1.05;;
24567;SDS011;12731;52.182;8.716;2022-10-16T11:39:38;4.53;;;0.80;;
24567;SDS011;12731;52.182;8.716;2022-10-16T11:42:08;1.48;;;0.70;;
24567;SDS011;12731;52.182;8.716;2022-10-16T11:44:40;6.38;;;1.00;;
24567;SDS011;12731;52.182;8.716;2022-10-16T11:53:25;3.45;;;0.75;;
24567;SDS011;12731;52.182;8.716;2022-10-16T11:56:01;2.70;;;0.98;;
24567;SDS011;12731;52.182;8.716;2022-10-16T12:01:19;4.38;;;1.08;;
24567;SDS011;12731;52.182;8.716;2022-10-16T12:04:03;4.50;;;1.20;;
24567;SDS011;12731;52.182;8.716;2022-10-16T12:09:01;3.58;;;0.90;;
24567;SDS011;12731;52.182;8.716;2022-10-16T12:14:07;2.55;;;1.27;;
24567;SDS011;12731;52.182;8.716;2022-10-16T12:19:22;4.18;;;1.15;;
24567;SDS011;12731;52.182;8.716;2022-10-16T12:21:54;3.70;;;1.25;;
24567;SDS011;12731;52.182;8.716;2022-10-16T12:24:35;4.93;;;1.38;;
24567;SDS011;12731;52.182;8.716;2022-10-16T12:27:04;3.42;;;1.38;;
24567;SDS011;12731;52.182;8.716;2022-10-16T12:29:33;4.72;;;1.50;;
24567;SDS011;12731;52.182;8.716;2022-10-16T12:32:40;4.70;;;1.13;;
24567;SDS011;12731;52.182;8.716;2022-10-16T12:35:22;5.50;;;1.52;;
24567;SDS011;12731;52.182;8.716;2022-10-16T12:37:51;1.67;;;1.15;;
24567;SDS011;12731;52.182;8.716;2022-10-16T12:40:54;4.38;;;1.48;;
24567;SDS011;12731;52.182;8.716;2022-10-16T12:46:01;5.38;;;1.40;;
24567;SDS011;12731;52.182;8.716;2022-10-16T12:48:29;2.83;;;1.50;;
24567;SDS011;12731;52.182;8.716;2022-10-16T12:53:57;3.25;;;1.45;;
24567;SDS011;12731;52.182;8.716;2022-10-16T12:56:37;3.53;;;1.20;;
24567;SDS011;12731;52.182;8.716;2022-10-16T13:02:16;14.13;;;2.25;;
24567;SDS011;12731;52.182;8.716;2022-10-16T13:10:34;4.55;;;1.65;;
24567;SDS011;12731;52.182;8.716;2022-10-16T13:16:16;3.58;;;1.65;;
24567;SDS011;12731;52.182;8.716;2022-10-16T13:18:57;4.32;;;0.90;;
24567;SDS011;12731;52.182;8.716;2022-10-16T13:21:49;3.60;;;1.20;;
24567;SDS011;12731;52.182;8.716;2022-10-16T13:30:13;2.40;;;0.90;;
24567;SDS011;12731;52.182;8.716;2022-10-16T13:32:58;2.50;;;0.80;;
24567;SDS011;12731;52.182;8.716;2022-10-16T13:35:27;1.80;;;0.80;;
24567;SDS011;12731;52.182;8.716;2022-10-16T13:38:03;2.33;;;0.85;;
24567;SDS011;12731;52.182;8.716;2022-10-16T13:40:56;2.97;;;0.90;;
24567;SDS011;12731;52.182;8.716;2022-10-16T13:43:28;2.58;;;0.90;;
24567;SDS011;12731;52.182;8.716;2022-10-16T13:45:59;3.33;;;1.20;;
24567;SDS011;12731;52.182;8.716;2022-10-16T13:48:38;2.25;;;0.98;;
24567;SDS011;12731;52.182;8.716;2022-10-16T13:51:14;2.33;;;1.00;;
24567;SDS011;12731;52.182;8.716;2022-10-16T13:53:43;3.22;;;1.30;;
24567;SDS011;12731;52.182;8.716;2022-10-16T13:56:11;2.60;;;1.08;;
24567;SDS011;12731;52.182;8.716;2022-10-16T13:58:39;2.05;;;0.93;;
24567;SDS011;12731;52.182;8.716;2022-10-16T14:01:13;1.30;;;0.93;;
24567;SDS011;12731;52.182;8.716;2022-10-16T14:03:42;2.13;;;0.80;;
24567;SDS011;12731;52.182;8.716;2022-10-16T14:06:12;2.60;;;0.80;;
24567;SDS011;12731;52.182;8.716;2022-10-16T14:08:42;2.55;;;0.85;;
24567;SDS011;12731;52.182;8.716;2022-10-16T14:11:10;3.30;;;0.82;;
24567;SDS011;12731;52.182;8.716;2022-10-16T14:13:37;1.17;;;0.80;;
24567;SDS011;12731;52.182;8.716;2022-10-16T14:16:09;3.00;;;0.70;;
24567;SDS011;12731;52.182;8.716;2022-10-16T14:18:37;2.10;;;1.00;;
24567;SDS011;12731;52.182;8.716;2022-10-16T14:21:11;2.03;;;1.00;;
24567;SDS011;12731;52.182;8.716;2022-10-16T14:23:40;1.63;;;0.90;;
24567;SDS011;12731;52.182;8.716;2022-10-16T14:28:37;2.00;;;1.00;;
24567;SDS011;12731;52.182;8.716;2022-10-16T14:31:19;3.95;;;1.13;;
24567;SDS011;12731;52.182;8.716;2022-10-16T14:33:49;2.78;;;1.30;;
24567;SDS011;12731;52.182;8.716;2022-10-16T14:36:16;3.50;;;1.25;;
24567;SDS011;12731;52.182;8.716;2022-10-16T14:38:58;4.30;;;1.20;;
24567;SDS011;12731;52.182;8.716;2022-10-16T14:41:33;3.20;;;1.27;;
24567;SDS011;12731;52.182;8.716;2022-10-16T14:44:09;2.78;;;1.00;;
24567;SDS011;12731;52.182;8.716;2022-10-16T14:46:37;2.35;;;0.95;;
24567;SDS011;12731;52.182;8.716;2022-10-16T14:51:41;2.08;;;1.00;;
24567;SDS011;12731;52.182;8.716;2022-10-16T14:54:08;3.72;;;1.40;;
24567;SDS011;12731;52.182;8.716;2022-10-16T14:57:12;2.30;;;1.05;;
24567;SDS011;12731;52.182;8.716;2022-10-16T14:59:37;4.53;;;1.27;;
24567;SDS011;12731;52.182;8.716;2022-10-16T15:02:13;2.40;;;1.05;;
24567;SDS011;12731;52.182;8.716;2022-10-16T15:04:44;3.67;;;1.30;;
24567;SDS011;12731;52.182;8.716;2022-10-16T15:07:11;3.28;;;1.15;;
24567;SDS011;12731;52.182;8.716;2022-10-16T15:09:37;3.70;;;1.30;;
24567;SDS011;12731;52.182;8.716;2022-10-16T15:12:04;2.25;;;1.00;;
24567;SDS011;12731;52.182;8.716;2022-10-16T15:14:30;1.75;;;0.90;;
24567;SDS011;12731;52.182;8.716;2022-10-16T15:16:57;2.38;;;0.90;;
24567;SDS011;12731;52.182;8.716;2022-10-16T15:19:23;3.70;;;1.10;;
24567;SDS011;12731;52.182;8.716;2022-10-16T15:21:50;2.15;;;1.20;;
24567;SDS011;12731;52.182;8.716;2022-10-16T15:24:17;2.95;;;1.45;;
24567;SDS011;12731;52.182;8.716;2022-10-16T15:26:46;2.63;;;1.00;;
24567;SDS011;12731;52.182;8.716;2022-10-16T15:29:13;2.40;;;1.08;;
24567;SDS011;12731;52.182;8.716;2022-10-16T15:31:40;1.98;;;1.00;;
24567;SDS011;12731;52.182;8.716;2022-10-16T15:34:10;1.85;;;1.02;;
24567;SDS011;12731;52.182;8.716;2022-10-16T15:36:37;3.47;;;1.40;;
24567;SDS011;12731;52.182;8.716;2022-10-16T15:39:05;2.47;;;1.00;;
24567;SDS011;12731;52.182;8.716;2022-10-16T15:41:37;1.27;;;1.05;;
24567;SDS011;12731;52.182;8.716;2022-10-16T15:44:03;2.50;;;1.25;;
24567;SDS011;12731;52.182;8.716;2022-10-16T15:46:30;4.45;;;1.50;;
24567;SDS011;12731;52.182;8.716;2022-10-16T15:48:59;3.05;;;1.40;;
24567;SDS011;12731;52.182;8.716;2022-10-16T15:51:26;2.97;;;1.45;;
24567;SDS011;12731;52.182;8.716;2022-10-16T15:53:55;5.60;;;1.30;;
24567;SDS011;12731;52.182;8.716;2022-10-16T15:56:22;3.38;;;1.42;;
24567;SDS011;12731;52.182;8.716;2022-10-16T15:58:51;3.53;;;1.13;;
24567;SDS011;12731;52.182;8.716;2022-10-16T16:01:19;2.25;;;1.10;;
24567;SDS011;12731;52.182;8.716;2022-10-16T16:03:46;1.40;;;1.10;;
24567;SDS011;12731;52.182;8.716;2022-10-16T16:06:13;1.77;;;1.15;;
24567;SDS011;12731;52.182;8.716;2022-10-16T16:08:40;2.25;;;1.20;;
24567;SDS011;12731;52.182;8.716;2022-10-16T16:11:08;3.95;;;1.42;;
24567;SDS011;12731;52.182;8.716;2022-10-16T16:13:38;2.33;;;1.10;;
24567;SDS011;12731;52.182;8.716;2022-10-16T16:16:07;2.60;;;1.20;;
24567;SDS011;12731;52.182;8.716;2022-10-16T16:18:34;2.65;;;1.13;;
24567;SDS011;12731;52.182;8.716;2022-10-16T16:21:00;1.08;;;0.98;;
24567;SDS011;12731;52.182;8.716;2022-10-16T16:23:27;3.15;;;1.40;;
24567;SDS011;12731;52.182;8.716;2022-10-16T16:28:33;3.17;;;1.20;;
24567;SDS011;12731;52.182;8.716;2022-10-16T16:31:00;4.93;;;1.30;;
24567;SDS011;12731;52.182;8.716;2022-10-16T16:33:27;2.47;;;1.40;;
24567;SDS011;12731;52.182;8.716;2022-10-16T16:36:12;3.65;;;1.50;;
24567;SDS011;12731;52.182;8.716;2022-10-16T16:38:41;3.60;;;1.70;;
24567;SDS011;12731;52.182;8.716;2022-10-16T16:41:14;3.03;;;1.50;;
24567;SDS011;12731;52.182;8.716;2022-10-16T16:43:43;2.63;;;1.52;;
24567;SDS011;12731;52.182;8.716;2022-10-16T16:46:10;4.20;;;1.50;;
24567;SDS011;12731;52.182;8.716;2022-10-16T16:48:37;3.40;;;1.48;;
24567;SDS011;12731;52.182;8.716;2022-10-16T16:51:04;2.92;;;1.45;;
24567;SDS011;12731;52.182;8.716;2022-10-16T16:53:35;2.33;;;1.20;;
24567;SDS011;12731;52.182;8.716;2022-10-16T16:56:05;3.35;;;1.35;;